SacPAS: Central Valley Prediction & Assessment of Salmon

UW Columbia Basin Research
Home Data Queries & Alerts Work Groups & Teams Fish Model Tools Contact
Alert: Weir Overtopping Temperature Thresholds Juvenile Monitoring & Sampling Juvenile Salvage & Loss Adult Escapement River Conditions Exposure Index Data Sites & Inventory

River Inventory Years


Friant Dam (Millerton) (MIL) All Parameters Inventory : Reservoir Outflow All Locations Inventory

SAN JOAQUIN R Basin
Friant Dam (Millerton) (MIL)
Reservoir Outflow
Location Parameter Year Data Points Day Range Date Range Annual
Daily Average
View
Location Parameter Year Data Points Day Range Date Range Annual
Daily Average
View
MIL Reservoir Outflow 2020 * 271 1-271 2020-01-01 : 2020-09-27 1503.21 Graph | Data Table
MIL Reservoir Outflow 2019 365 1-365 2019-01-01 : 2019-12-31 3729.61 Graph | Data Table
MIL Reservoir Outflow 2018 365 1-365 2018-01-01 : 2018-12-31 1876.21 Graph | Data Table
MIL Reservoir Outflow 2017 365 1-365 2017-01-01 : 2017-12-31 6005.38 Graph | Data Table
MIL Reservoir Outflow 2016 366 1-366 2016-01-01 : 2016-12-31 1562.55 Graph | Data Table
MIL Reservoir Outflow 2015 365 1-365 2015-01-01 : 2015-12-31 449.26 Graph | Data Table
MIL Reservoir Outflow 2014 365 1-365 2014-01-01 : 2014-12-31 746.24 Graph | Data Table
MIL Reservoir Outflow 2013 365 1-365 2013-01-01 : 2013-12-31 1186.22 Graph | Data Table
MIL Reservoir Outflow 2012 366 1-366 2012-01-01 : 2012-12-31 1292.98 Graph | Data Table
MIL Reservoir Outflow 2011 365 1-365 2011-01-01 : 2011-12-31 4433.24 Graph | Data Table
MIL Reservoir Outflow 2010 365 1-365 2010-01-01 : 2010-12-31 2724.98 Graph | Data Table
MIL Reservoir Outflow 2009 365 1-365 2009-01-01 : 2009-12-31 1944.92 Graph | Data Table
MIL Reservoir Outflow 2008 366 1-366 2008-01-01 : 2008-12-31 1479.74 Graph | Data Table
MIL Reservoir Outflow 2007 365 1-365 2007-01-01 : 2007-12-31 1115.76 Graph | Data Table
MIL Reservoir Outflow 2006 365 1-365 2006-01-01 : 2006-12-31 4385.93 Graph | Data Table
MIL Reservoir Outflow 2005 365 1-365 2005-01-01 : 2005-12-31 3837.51 Graph | Data Table
MIL Reservoir Outflow 2004 366 1-366 2004-01-01 : 2004-12-31 1511.43 Graph | Data Table
MIL Reservoir Outflow 2003 365 1-365 2003-01-01 : 2003-12-31 1983.06 Graph | Data Table
MIL Reservoir Outflow 2002 365 1-365 2002-01-01 : 2002-12-31 1517.31 Graph | Data Table
MIL Reservoir Outflow 2001 365 1-365 2001-01-01 : 2001-12-31 1513.81 Graph | Data Table
MIL Reservoir Outflow 2000 343 1-366 2000-01-01 : 2000-12-31 2513.34 Graph | Data Table
MIL Reservoir Outflow 1999 342 1-365 1999-01-01 : 1999-12-31 2207.42 Graph | Data Table
MIL Reservoir Outflow 1998 348 1-365 1998-01-01 : 1998-12-31 4052.49 Graph | Data Table
MIL Reservoir Outflow 1997 358 1-364 1997-01-01 : 1997-12-30 4029.95 Graph | Data Table
MIL Reservoir Outflow 1996 331 1-366 1996-01-01 : 1996-12-31 3166.27 Graph | Data Table
MIL Reservoir Outflow 1995 315 4-365 1995-01-04 : 1995-12-31 5135.97 Graph | Data Table
MIL Reservoir Outflow 1994 315 1-360 1994-01-01 : 1994-12-26 1256.62 Graph | Data Table
MIL Reservoir Outflow 1993 304 4-365 1993-01-04 : 1993-12-31 3650.80 Graph | Data Table
MIL Reservoir Outflow 1992 282 1-365 1992-01-01 : 1992-12-30 1262.30 Graph | Data Table
MIL Reservoir Outflow 1991 217 1-365 1991-01-01 : 1991-12-31 1617.22 Graph | Data Table
MIL Reservoir Outflow 1990 233 1-351 1990-01-01 : 1990-12-17 1095.45 Graph | Data Table
MIL Reservoir Outflow 1989 273 2-362 1989-01-02 : 1989-12-28 1632.12 Graph | Data Table
MIL Reservoir Outflow 1988 156 4-361 1988-01-04 : 1988-12-26 1155.09 Graph | Data Table
MIL Reservoir Outflow 1987 57 171-361 1987-06-20 : 1987-12-27 1711.28 Graph | Data Table
* Incomplete data year.
Generated: 29 Sep 2020 23:19:07 PDT. www.cbr.washington.edu/sacramento/data/.

Home | Data Queries & Alerts | Fish Model | Contact


POC: web@cbr.washington.edu

SacPAS: Central Valley Prediction & Assessment of Salmon, University of Washington, Columbia Basin Research, www.cbr.washington.edu/sacramento/